Time;durP1;ratioP1;P1;durP2;ratioP2;P2;SDS_P1;SDS_P2;PMS_P1;PMS_P2;Temp;Humidity;BMP_temperature;BMP_pressure;BME280_temperature;BME280_humidity;BME280_pressure;Samples;Min_cycle;Max_cycle;Signal;HPM_P1;HPM_P2
2023/10/19 00:00:22;;;;;;;;;;;;;;;4.83;68.73;100147.34;110846;1209;97620;-63
2023/10/19 00:02:54;;;;;;;;;;;;;;;4.83;68.66;100145.22;110825;1213;97677;-63
2023/10/19 00:05:20;;;;;;;;;;;;;;;4.82;68.87;100138.70;110640;1212;126223;-63
2023/10/19 00:07:46;;;;;;;;;;;;;;;4.81;68.93;100132.87;110875;1209;97565;-62
2023/10/19 00:10:19;;;;;;;;;;;;;;;4.83;68.90;100126.81;110794;1212;125185;-63
2023/10/19 00:12:52;;;;;;;;;;;;;;;4.83;69.01;100124.33;110756;1209;97595;-64
2023/10/19 00:15:22;;;;;;;;;;;;;;;4.84;68.88;100121.29;110772;1212;97693;-63
2023/10/19 00:17:53;;;;;;;;;;;;;;;4.84;69.14;100116.33;110631;1209;126154;-64
2023/10/19 00:20:35;;;;;;;;;;;;;;;4.84;69.03;100111.19;110712;1213;98939;-64
2023/10/19 00:23:02;;;;;;;;;;;;;;;4.84;69.23;100104.30;110667;1209;125559;-63
2023/10/19 00:25:29;;;;;;;;;;;;;;;4.84;68.88;100100.23;110986;1213;96562;-62
2023/10/19 00:27:54;;;;;;;;;;;;;;;4.86;69.12;100093.62;110691;1212;126159;-63
2023/10/19 00:30:23;;;;;;;;;;;;;;;4.86;69.14;100081.39;110798;1210;97676;-63
2023/10/19 00:32:48;;;;;;;;;;;;;;;4.87;69.13;100071.63;111357;1209;108427;-63
2023/10/19 00:35:34;;;;;;;;;;;;;;;4.87;69.15;100068.28;110943;1209;125570;-62
2023/10/19 00:38:21;;;;;;;;;;;;;;;4.87;69.20;100060.48;110818;1209;97613;-62
2023/10/19 00:40:53;;;;;;;;;;;;;;;4.87;69.31;100057.64;110728;1214;124575;-64
2023/10/19 00:43:28;;;;;;;;;;;;;;;4.87;69.29;100056.58;110775;1225;100123;-62
2023/10/19 00:45:54;;;;;;;;;;;;;;;4.86;69.29;100049.34;110762;1213;125236;-64
2023/10/19 00:48:23;;;;;;;;;;;;;;;4.86;69.38;100048.10;110837;1213;97629;-63
2023/10/19 00:50:52;;;;;;;;;;;;;;;4.86;69.52;100044.22;110895;1209;97687;-63
2023/10/19 00:53:18;;;;;;;;;;;;;;;4.85;69.57;100043.54;110619;1213;125025;-63
2023/10/19 00:55:45;;;;;;;;;;;;;;;4.84;69.61;100039.15;110769;1213;97684;-63
2023/10/19 00:58:17;;;;;;;;;;;;;;;4.84;69.56;100037.37;110618;1213;125112;-63
2023/10/19 01:00:45;;;;;;;;;;;;;;;4.84;69.71;100031.54;110796;1225;97570;-63
2023/10/19 01:03:16;;;;;;;;;;;;;;;4.85;69.80;100029.56;110781;1212;97655;-63
2023/10/19 01:05:48;;;;;;;;;;;;;;;4.85;69.82;100021.41;110658;1210;124697;-63
2023/10/19 01:08:23;;;;;;;;;;;;;;;4.86;69.68;100021.39;110743;1213;100561;-64
2023/10/19 01:10:52;;;;;;;;;;;;;;;4.88;69.70;100017.98;110636;1212;124718;-63
2023/10/19 01:13:18;;;;;;;;;;;;;;;4.89;69.71;100006.06;110758;1230;97798;-64
2023/10/19 01:15:43;;;;;;;;;;;;;;;4.91;69.81;100002.31;110759;1212;125132;-63
2023/10/19 01:18:13;;;;;;;;;;;;;;;4.92;69.93;99995.20;110843;1209;99065;-63
2023/10/19 01:20:50;;;;;;;;;;;;;;;4.93;69.75;99989.66;110766;1209;107605;-65
2023/10/19 01:23:49;;;;;;;;;;;;;;;4.93;69.95;99984.00;110616;1209;124645;-63
2023/10/19 01:26:08;;;;;;;;;;;;;;;4.94;69.94;99976.20;110752;1211;97771;-63
2023/10/19 01:28:51;;;;;;;;;;;;;;;4.95;70.17;99966.77;110704;1212;125615;-63
2023/10/19 01:31:30;;;;;;;;;;;;;;;4.98;70.08;99958.02;110792;1212;99862;-63
2023/10/19 01:34:00;;;;;;;;;;;;;;;4.99;70.24;99952.67;110650;1212;124611;-64
2023/10/19 01:36:27;;;;;;;;;;;;;;;4.99;70.29;99946.81;110791;1209;97694;-63
2023/10/19 01:38:57;;;;;;;;;;;;;;;5.00;70.03;99943.42;110875;1209;98946;-63
2023/10/19 01:41:24;;;;;;;;;;;;;;;5.01;70.04;99944.63;110744;1209;125578;-64
2023/10/19 01:43:53;;;;;;;;;;;;;;;5.04;70.28;99938.89;110666;1212;97690;-63
2023/10/19 01:46:22;;;;;;;;;;;;;;;5.05;70.45;99937.23;110665;1212;125279;-64
2023/10/19 01:48:50;;;;;;;;;;;;;;;5.06;70.35;99930.66;110840;1225;98132;-63
2023/10/19 01:51:16;;;;;;;;;;;;;;;5.06;70.28;99921.80;110903;1213;97654;-64
2023/10/19 01:53:44;;;;;;;;;;;;;;;5.07;70.38;99920.52;110667;1213;124415;-63
2023/10/19 01:56:10;;;;;;;;;;;;;;;5.08;70.39;99914.30;110833;1210;97575;-63
2023/10/19 01:58:39;;;;;;;;;;;;;;;5.09;70.39;99909.14;110697;1213;125299;-63
2023/10/19 02:01:20;;;;;;;;;;;;;;;5.10;70.41;99902.18;110854;1209;97608;-64
2023/10/19 02:03:46;;;;;;;;;;;;;;;5.10;70.55;99892.62;110721;1223;125083;-63
2023/10/19 02:06:36;;;;;;;;;;;;;;;5.12;70.62;99892.93;110877;1212;97594;-63
2023/10/19 02:09:09;;;;;;;;;;;;;;;5.11;70.58;99889.56;110879;1212;100041;-63
2023/10/19 02:11:37;;;;;;;;;;;;;;;5.14;70.49;99887.19;110727;1212;125636;-62
2023/10/19 02:14:04;;;;;;;;;;;;;;;5.15;70.44;99880.96;110853;1210;97687;-62
2023/10/19 02:16:32;;;;;;;;;;;;;;;5.16;70.44;99876.13;110664;1211;124733;-62
2023/10/19 02:18:58;;;;;;;;;;;;;;;5.17;70.41;99865.29;110849;1213;97747;-62
2023/10/19 02:21:27;;;;;;;;;;;;;;;5.19;70.79;99860.80;110774;1209;99664;-62
2023/10/19 02:23:52;;;;;;;;;;;;;;;5.22;70.64;99857.31;110738;1209;124311;-64
2023/10/19 02:26:19;;;;;;;;;;;;;;;5.24;70.61;99857.41;110847;1210;97636;-62
2023/10/19 02:28:45;;;;;;;;;;;;;;;5.25;70.62;99854.90;110725;1212;124222;-62
2023/10/19 02:31:19;;;;;;;;;;;;;;;5.26;70.65;99854.86;110810;1210;97696;-65
2023/10/19 02:34:00;;;;;;;;;;;;;;;5.27;70.78;99845.80;110640;1213;125598;-62
2023/10/19 02:36:30;;;;;;;;;;;;;;;5.29;70.68;99847.69;110667;1213;96579;-62
2023/10/19 02:39:07;;;;;;;;;;;;;;;5.30;70.85;99843.57;110897;1211;97581;-62
2023/10/19 02:41:49;;;;;;;;;;;;;;;5.30;70.84;99841.98;110894;1209;125073;-63
2023/10/19 02:46:50;;;;;;;;;;;;;;;5.30;70.79;99833.98;110740;1212;124242;-63
2023/10/19 02:49:18;;;;;;;;;;;;;;;5.30;70.95;99831.50;110801;1223;97583;-62
2023/10/19 02:51:47;;;;;;;;;;;;;;;5.31;70.83;99830.27;110726;1214;124430;-62
2023/10/19 02:54:22;;;;;;;;;;;;;;;5.32;71.01;99828.10;110843;1212;111534;-62
2023/10/19 02:56:53;;;;;;;;;;;;;;;5.31;70.85;99828.99;110880;1224;99074;-62
2023/10/19 02:59:28;;;;;;;;;;;;;;;5.31;71.00;99825.81;110720;1211;124875;-63
2023/10/19 03:02:07;;;;;;;;;;;;;;;5.31;71.07;99824.23;110854;1226;97689;-62
2023/10/19 03:04:35;;;;;;;;;;;;;;;5.30;71.07;99819.84;110727;1214;125366;-62
2023/10/19 03:07:02;;;;;;;;;;;;;;;5.31;70.96;99819.62;110854;1212;111131;-63
2023/10/19 03:11:54;;;;;;;;;;;;;;;5.33;70.94;99817.95;110763;1214;124158;-62
2023/10/19 03:14:19;;;;;;;;;;;;;;;5.33;70.99;99819.36;110787;1212;99144;-62
2023/10/19 03:16:45;;;;;;;;;;;;;;;5.34;71.09;99814.91;110741;1209;124241;-62
2023/10/19 03:19:12;;;;;;;;;;;;;;;5.34;71.06;99811.02;110874;1211;97610;-62
2023/10/19 03:21:46;;;;;;;;;;;;;;;5.34;71.12;99808.51;110779;1209;98711;-63
2023/10/19 03:24:12;;;;;;;;;;;;;;;5.34;71.16;99810.66;110825;1212;97679;-62
2023/10/19 03:26:40;;;;;;;;;;;;;;;5.34;71.19;99804.08;110873;1209;97633;-62
2023/10/19 03:29:12;;;;;;;;;;;;;;;5.34;70.97;99797.02;110690;1214;124551;-63
2023/10/19 03:31:43;;;;;;;;;;;;;;;5.33;71.01;99785.70;110688;1216;109867;-62
2023/10/19 03:34:12;;;;;;;;;;;;;;;5.33;71.25;99779.17;110666;1210;124673;-62
2023/10/19 03:36:38;;;;;;;;;;;;;;;5.32;71.21;99774.07;110873;1211;97590;-62
2023/10/19 03:39:11;;;;;;;;;;;;;;;5.31;71.18;99769.85;110825;1213;97802;-62
2023/10/19 03:41:38;;;;;;;;;;;;;;;5.29;71.16;99769.57;110713;1212;125676;-62
2023/10/19 03:44:03;;;;;;;;;;;;;;;5.28;71.08;99760.38;110799;1210;97677;-64
2023/10/19 03:46:30;;;;;;;;;;;;;;;5.28;71.27;99757.92;111080;1212;124429;-62
2023/10/19 03:48:59;;;;;;;;;;;;;;;5.27;71.14;99753.17;110780;1212;97838;-62
2023/10/19 03:51:26;;;;;;;;;;;;;;;5.26;71.10;99745.59;110841;1209;99288;-62
2023/10/19 03:53:58;;;;;;;;;;;;;;;5.24;71.09;99743.52;110804;1213;125223;-62
2023/10/19 03:56:24;;;;;;;;;;;;;;;5.22;71.14;99748.37;110688;1209;97629;-63
2023/10/19 03:58:50;;;;;;;;;;;;;;;5.22;71.23;99752.63;110701;1214;126722;-63
2023/10/19 04:01:20;;;;;;;;;;;;;;;5.21;71.44;99744.33;110794;1211;97646;-63
2023/10/19 04:03:45;;;;;;;;;;;;;;;5.21;71.43;99742.22;110688;1209;124506;-63
2023/10/19 04:06:14;;;;;;;;;;;;;;;5.21;71.42;99736.73;110920;1220;97607;-65
2023/10/19 04:08:40;;;;;;;;;;;;;;;5.20;71.34;99726.84;110702;1212;97678;-62
2023/10/19 04:11:08;;;;;;;;;;;;;;;5.21;71.46;99721.66;110739;1214;125077;-62
2023/10/19 04:13:34;;;;;;;;;;;;;;;5.21;71.56;99719.01;110792;1212;97583;-63
2023/10/19 04:15:59;;;;;;;;;;;;;;;5.22;71.35;99714.71;110807;1214;124359;-63
2023/10/19 04:18:25;;;;;;;;;;;;;;;5.24;71.49;99713.77;110663;1225;97721;-63
2023/10/19 04:23:21;;;;;;;;;;;;;;;5.27;71.54;99716.33;110642;1211;124222;-63
2023/10/19 04:25:46;;;;;;;;;;;;;;;5.28;71.55;99719.64;110781;1211;97722;-63
2023/10/19 04:28:13;;;;;;;;;;;;;;;5.28;71.64;99715.74;110745;1212;124529;-62
2023/10/19 04:30:38;;;;;;;;;;;;;;;5.29;71.60;99705.80;110687;1226;97679;-64
2023/10/19 04:33:08;;;;;;;;;;;;;;;5.29;71.56;99701.70;110796;1211;97652;-63
2023/10/19 04:35:34;;;;;;;;;;;;;;;5.30;71.61;99695.14;110707;1212;125402;-63
2023/10/19 04:37:59;;;;;;;;;;;;;;;5.30;71.66;99698.33;110824;1213;97672;-64
2023/10/19 04:40:24;;;;;;;;;;;;;;;5.29;71.66;99696.94;110678;1214;124909;-63
2023/10/19 04:42:57;;;;;;;;;;;;;;;5.29;71.57;99701.19;110818;1210;97581;-63
2023/10/19 04:45:22;;;;;;;;;;;;;;;5.30;71.59;99693.35;110774;1213;98564;-63
2023/10/19 04:47:54;;;;;;;;;;;;;;;5.31;71.67;99684.98;110732;1209;124208;-63
2023/10/19 04:50:20;;;;;;;;;;;;;;;5.32;71.73;99681.76;110970;1224;96576;-63
2023/10/19 04:52:45;;;;;;;;;;;;;;;5.34;71.65;99682.06;110608;1214;124326;-63
2023/10/19 04:55:10;;;;;;;;;;;;;;;5.35;71.68;99674.06;110859;1213;97789;-63
2023/10/19 04:57:35;;;;;;;;;;;;;;;5.36;71.68;99666.75;110678;1213;98891;-64
2023/10/19 05:00:01;;;;;;;;;;;;;;;5.37;71.78;99665.46;110726;1214;124105;-64
2023/10/19 05:02:26;;;;;;;;;;;;;;;5.37;71.82;99666.70;110620;1211;99013;-63
2023/10/19 05:04:51;;;;;;;;;;;;;;;5.38;71.75;99661.17;110639;1212;125889;-63
2023/10/19 05:07:16;;;;;;;;;;;;;;;5.39;71.81;99654.23;110581;1214;97767;-65
2023/10/19 05:09:42;;;;;;;;;;;;;;;5.40;71.62;99654.71;110580;1214;125108;-62
2023/10/19 05:12:11;;;;;;;;;;;;;;;5.39;71.86;99652.96;110632;1214;97691;-62
2023/10/19 05:14:36;;;;;;;;;;;;;;;5.40;71.76;99651.89;110643;1212;107653;-62
2023/10/19 05:17:04;;;;;;;;;;;;;;;5.40;71.78;99653.14;110599;1214;124641;-63
2023/10/19 05:19:30;;;;;;;;;;;;;;;5.40;71.75;99657.17;110655;1213;97645;-63
2023/10/19 05:21:55;;;;;;;;;;;;;;;5.41;71.78;99657.48;110643;1213;125788;-63
2023/10/19 05:24:21;;;;;;;;;;;;;;;5.42;71.81;99659.08;110712;1213;97655;-63
2023/10/19 05:26:46;;;;;;;;;;;;;;;5.42;71.79;99655.15;110711;1214;97899;-63
2023/10/19 05:29:12;;;;;;;;;;;;;;;5.43;72.02;99650.86;110515;1211;124533;-64
2023/10/19 05:31:37;;;;;;;;;;;;;;;5.43;71.92;99642.36;110714;1214;97705;-64
2023/10/19 05:34:04;;;;;;;;;;;;;;;5.44;71.78;99643.77;110687;1209;124564;-65
2023/10/19 05:36:29;;;;;;;;;;;;;;;5.45;71.87;99648.86;110854;1211;97694;-64
2023/10/19 05:38:54;;;;;;;;;;;;;;;5.46;71.82;99656.63;110850;1214;97745;-64
2023/10/19 05:41:21;;;;;;;;;;;;;;;5.47;71.87;99657.98;110764;1214;125024;-63
2023/10/19 05:43:46;;;;;;;;;;;;;;;5.47;72.03;99661.88;110800;1212;97658;-64
2023/10/19 05:46:13;;;;;;;;;;;;;;;5.49;71.80;99660.23;110963;1214;124978;-64
2023/10/19 05:48:39;;;;;;;;;;;;;;;5.50;71.94;99656.28;110723;1211;97622;-64
2023/10/19 05:51:04;;;;;;;;;;;;;;;5.51;71.82;99654.80;110895;1209;97606;-63
2023/10/19 05:53:30;;;;;;;;;;;;;;;5.53;72.04;99655.06;110751;1214;124581;-63
2023/10/19 05:55:55;;;;;;;;;;;;;;;5.55;71.92;99653.08;110882;1211;97611;-64
2023/10/19 05:58:20;;;;;;;;;;;;;;;5.57;72.09;99661.14;110691;1214;124966;-64
2023/10/19 06:00:46;;;;;;;;;;;;;;;5.61;72.06;99666.87;110743;1211;97700;-64
2023/10/19 06:03:11;;;;;;;;;;;;;;;5.63;72.13;99669.23;110854;1214;97738;-64
2023/10/19 06:05:36;;;;;;;;;;;;;;;5.66;72.16;99670.71;110679;1214;124225;-63
2023/10/19 06:08:01;;;;;;;;;;;;;;;5.69;72.14;99669.92;110859;1216;97613;-63
2023/10/19 06:10:28;;;;;;;;;;;;;;;5.71;72.01;99670.17;110699;1212;124554;-62
2023/10/19 06:12:53;;;;;;;;;;;;;;;5.72;72.09;99666.39;110762;1211;97519;-63
2023/10/19 06:15:20;;;;;;;;;;;;;;;5.73;72.04;99663.88;110811;1214;97686;-62
2023/10/19 06:17:47;;;;;;;;;;;;;;;5.74;72.06;99661.52;110652;1212;124394;-62
2023/10/19 06:20:28;;;;;;;;;;;;;;;5.77;72.09;99661.27;110901;1213;97654;-62
2023/10/19 06:22:55;;;;;;;;;;;;;;;5.81;72.13;99662.50;110666;1213;125518;-62
2023/10/19 06:25:22;;;;;;;;;;;;;;;5.85;72.15;99666.23;110723;1215;97661;-62
2023/10/19 06:27:47;;;;;;;;;;;;;;;5.87;72.08;99657.46;110644;1212;125356;-63
2023/10/19 06:30:17;;;;;;;;;;;;;;;5.89;71.95;99657.43;110811;1221;97711;-65
2023/10/19 06:32:44;;;;;;;;;;;;;;;5.88;72.04;99665.60;110779;1214;97622;-62
2023/10/19 06:35:11;;;;;;;;;;;;;;;5.89;72.09;99669.48;110664;1209;124316;-63
2023/10/19 06:37:36;;;;;;;;;;;;;;;5.90;72.23;99660.57;110811;1214;97678;-63
2023/10/19 06:40:01;;;;;;;;;;;;;;;5.94;72.21;99664.85;110715;1215;124687;-62
2023/10/19 06:42:27;;;;;;;;;;;;;;;5.98;72.12;99660.27;110651;1221;97589;-62
2023/10/19 06:44:53;;;;;;;;;;;;;;;6.00;72.14;99657.36;110742;1214;97742;-64
2023/10/19 06:47:18;;;;;;;;;;;;;;;6.01;72.32;99652.70;110715;1211;125094;-62
2023/10/19 06:49:43;;;;;;;;;;;;;;;6.04;72.15;99651.69;110788;1214;97685;-62
2023/10/19 06:52:11;;;;;;;;;;;;;;;6.08;72.29;99652.73;110685;1214;125541;-63
2023/10/19 06:54:37;;;;;;;;;;;;;;;6.12;72.23;99652.95;110274;1223;101094;-64
2023/10/19 06:57:03;;;;;;;;;;;;;;;6.14;72.18;99646.14;110403;1213;100102;-64
2023/10/19 06:59:29;;;;;;;;;;;;;;;6.18;72.29;99641.36;110744;1220;124618;-64
2023/10/19 07:01:54;;;;;;;;;;;;;;;6.23;72.22;99637.61;110734;1212;111768;-63
2023/10/19 07:04:19;;;;;;;;;;;;;;;6.26;72.31;99624.70;110625;1213;124568;-64
2023/10/19 07:06:46;;;;;;;;;;;;;;;6.31;72.27;99618.63;110630;1214;96714;-63
2023/10/19 07:09:11;;;;;;;;;;;;;;;6.36;72.20;99616.11;110508;1214;98009;-63
2023/10/19 07:11:36;;;;;;;;;;;;;;;6.39;72.30;99615.81;110714;1223;125607;-64
2023/10/19 07:14:01;;;;;;;;;;;;;;;6.44;72.32;99601.94;110736;1213;108376;-64
2023/10/19 07:16:26;;;;;;;;;;;;;;;6.48;72.35;99597.68;110584;1213;125035;-64
2023/10/19 07:18:52;;;;;;;;;;;;;;;6.50;72.39;99592.44;110776;1214;97616;-64
2023/10/19 07:21:18;;;;;;;;;;;;;;;6.54;72.27;99592.61;110972;1214;98079;-65
2023/10/19 07:23:45;;;;;;;;;;;;;;;6.59;72.40;99586.88;110798;1210;128302;-65
2023/10/19 07:26:11;;;;;;;;;;;;;;;6.66;72.27;99580.21;110780;1214;97716;-64
2023/10/19 07:28:39;;;;;;;;;;;;;;;6.70;72.27;99573.42;110667;1214;124792;-64
2023/10/19 07:31:04;;;;;;;;;;;;;;;6.76;72.31;99575.30;110710;1213;98665;-65
2023/10/19 07:33:30;;;;;;;;;;;;;;;6.81;72.32;99567.77;110682;1212;97696;-65
2023/10/19 07:35:55;;;;;;;;;;;;;;;6.89;72.37;99562.14;110597;1213;124431;-64
2023/10/19 07:38:22;;;;;;;;;;;;;;;6.96;72.41;99565.89;110833;1209;97606;-64
2023/10/19 07:40:47;;;;;;;;;;;;;;;7.02;72.29;99562.23;111248;1214;125977;-64
2023/10/19 07:43:13;;;;;;;;;;;;;;;7.09;72.36;99561.20;111247;1214;99433;-64
2023/10/19 07:45:38;;;;;;;;;;;;;;;7.14;72.30;99554.89;110848;1214;97742;-65
2023/10/19 07:48:07;;;;;;;;;;;;;;;7.20;72.32;99550.02;111301;1209;125302;-64
2023/10/19 07:50:35;;;;;;;;;;;;;;;7.24;72.29;99549.64;110733;1214;108670;-64
2023/10/19 07:53:01;;;;;;;;;;;;;;;7.28;72.29;99538.46;110789;1214;126083;-65
2023/10/19 07:55:26;;;;;;;;;;;;;;;7.33;72.23;99531.42;111084;1215;97637;-66
2023/10/19 07:57:52;;;;;;;;;;;;;;;7.39;72.16;99525.98;111212;1210;125290;-66
2023/10/19 08:00:18;;;;;;;;;;;;;;;7.43;72.15;99520.13;111253;1214;97562;-62
2023/10/19 08:02:46;;;;;;;;;;;;;;;7.45;72.11;99518.80;110683;1214;97659;-64
2023/10/19 08:05:15;;;;;;;;;;;;;;;7.49;72.22;99523.39;111157;1209;124515;-66
2023/10/19 08:07:44;;;;;;;;;;;;;;;7.52;71.98;99520.73;111245;1210;111010;-66
2023/10/19 08:10:11;;;;;;;;;;;;;;;7.57;72.03;99512.71;111192;1213;125110;-65
2023/10/19 08:12:43;;;;;;;;;;;;;;;7.60;71.94;99506.34;110862;1210;97643;-64
2023/10/19 08:15:12;;;;;;;;;;;;;;;7.62;72.01;99509.05;110607;1215;97848;-64
2023/10/19 08:17:39;;;;;;;;;;;;;;;7.66;71.93;99509.95;111231;1214;125135;-63
2023/10/19 08:20:08;;;;;;;;;;;;;;;7.69;71.90;99516.52;111337;1209;96235;-64
2023/10/19 08:22:34;;;;;;;;;;;;;;;7.72;71.85;99519.04;111236;1209;125418;-63
2023/10/19 08:24:59;;;;;;;;;;;;;;;7.75;71.80;99515.70;111284;1210;97727;-63
2023/10/19 08:27:24;;;;;;;;;;;;;;;7.77;71.78;99511.48;110646;1214;97641;-63
2023/10/19 08:29:50;;;;;;;;;;;;;;;7.79;71.78;99516.04;110533;1209;126065;-63
2023/10/19 08:32:16;;;;;;;;;;;;;;;7.81;71.75;99519.98;110756;1215;97638;-63
2023/10/19 08:34:41;;;;;;;;;;;;;;;7.86;71.80;99518.66;110657;1214;124665;-64
2023/10/19 08:37:07;;;;;;;;;;;;;;;7.90;71.71;99518.50;110929;1212;97674;-63
2023/10/19 08:39:38;;;;;;;;;;;;;;;7.93;71.65;99515.84;111025;1214;98439;-64
2023/10/19 08:42:04;;;;;;;;;;;;;;;7.98;71.68;99519.80;111165;1210;124928;-64
2023/10/19 08:44:30;;;;;;;;;;;;;;;8.04;71.74;99514.22;110733;1214;98288;-63
2023/10/19 08:46:57;;;;;;;;;;;;;;;8.08;71.56;99519.88;110727;1213;125037;-63
2023/10/19 08:49:22;;;;;;;;;;;;;;;8.12;71.60;99516.46;110646;1215;100018;-63
2023/10/19 08:51:48;;;;;;;;;;;;;;;8.20;71.60;99512.33;110597;1209;125583;-64
2023/10/19 08:54:14;;;;;;;;;;;;;;;8.25;71.53;99509.55;110728;1212;99144;-63
2023/10/19 08:56:41;;;;;;;;;;;;;;;8.31;71.52;99505.52;110611;1209;97690;-63
2023/10/19 08:59:06;;;;;;;;;;;;;;;8.37;71.45;99499.34;110704;1212;124890;-63
2023/10/19 09:01:32;;;;;;;;;;;;;;;8.42;71.43;99498.56;110751;1210;97614;-64
2023/10/19 09:04:00;;;;;;;;;;;;;;;8.46;71.33;99492.08;110846;1215;124604;-63
2023/10/19 09:06:28;;;;;;;;;;;;;;;8.52;71.34;99490.54;110592;1209;111630;-64
2023/10/19 09:08:53;;;;;;;;;;;;;;;8.57;71.30;99485.27;110536;1215;97620;-64
2023/10/19 09:11:20;;;;;;;;;;;;;;;8.65;71.20;99479.31;110531;1209;124602;-64
2023/10/19 09:13:49;;;;;;;;;;;;;;;8.72;71.14;99466.82;110578;1215;97622;-64
2023/10/19 09:16:21;;;;;;;;;;;;;;;8.80;71.20;99461.77;110676;1214;125183;-64
2023/10/19 09:18:46;;;;;;;;;;;;;;;8.85;71.05;99459.38;110678;1209;111646;-64
2023/10/19 09:21:23;;;;;;;;;;;;;;;8.91;71.07;99458.10;110711;1215;97698;-64
2023/10/19 09:23:49;;;;;;;;;;;;;;;8.95;70.87;99445.27;111150;1209;125515;-64
2023/10/19 09:26:15;;;;;;;;;;;;;;;8.97;70.84;99444.23;111245;1225;98437;-64
2023/10/19 09:28:40;;;;;;;;;;;;;;;8.94;70.67;99446.00;111021;1214;125574;-64
2023/10/19 09:31:05;;;;;;;;;;;;;;;8.93;70.68;99442.86;110734;1219;96873;-64
2023/10/19 09:33:33;;;;;;;;;;;;;;;8.93;70.59;99435.55;110798;1212;97813;-64
2023/10/19 09:36:00;;;;;;;;;;;;;;;8.94;70.67;99425.02;110644;1215;124757;-64
2023/10/19 09:38:26;;;;;;;;;;;;;;;8.94;70.48;99417.52;111369;1209;97611;-64
2023/10/19 09:40:54;;;;;;;;;;;;;;;8.93;70.42;99405.30;110940;1210;126296;-64
2023/10/19 09:43:33;;;;;;;;;;;;;;;8.89;70.24;99400.52;110693;1215;106818;-64
2023/10/19 09:46:00;;;;;;;;;;;;;;;8.83;70.16;99408.55;110590;1210;124845;-64
2023/10/19 09:48:26;;;;;;;;;;;;;;;8.78;70.04;99416.79;110753;1209;97569;-64
2023/10/19 09:50:55;;;;;;;;;;;;;;;8.78;70.09;99424.10;110885;1214;98157;-64
2023/10/19 09:53:22;;;;;;;;;;;;;;;8.79;69.98;99429.73;110638;1209;125502;-64
2023/10/19 09:55:50;;;;;;;;;;;;;;;8.78;69.84;99435.86;110746;1213;97909;-64
2023/10/19 09:58:21;;;;;;;;;;;;;;;8.80;69.86;99431.68;110929;1212;125768;-64
2023/10/19 10:00:49;;;;;;;;;;;;;;;8.83;69.79;99427.39;110765;1215;98259;-65
2023/10/19 10:03:33;;;;;;;;;;;;;;;8.84;69.68;99420.96;110639;1209;111584;-65
2023/10/19 10:05:58;;;;;;;;;;;;;;;8.86;69.81;99424.95;110551;1214;125122;-64
2023/10/19 10:08:23;;;;;;;;;;;;;;;8.89;69.68;99432.60;110716;1209;97616;-64
2023/10/19 10:10:49;;;;;;;;;;;;;;;8.91;69.66;99436.56;110743;1215;125070;-64
2023/10/19 10:13:24;;;;;;;;;;;;;;;8.96;69.60;99429.18;110642;1210;98410;-64
2023/10/19 10:15:49;;;;;;;;;;;;;;;8.98;69.60;99421.55;110570;1214;124761;-64
2023/10/19 10:18:15;;;;;;;;;;;;;;;8.99;69.51;99411.86;110635;1215;97700;-64
2023/10/19 10:20:40;;;;;;;;;;;;;;;9.01;69.45;99409.10;110670;1213;97692;-64
2023/10/19 10:23:21;;;;;;;;;;;;;;;9.02;69.46;99404.23;110610;1222;124136;-64
2023/10/19 10:25:50;;;;;;;;;;;;;;;9.01;69.41;99404.30;110780;1210;100282;-64
2023/10/19 10:28:16;;;;;;;;;;;;;;;8.97;69.22;99404.70;110659;1212;124277;-64
2023/10/19 10:31:00;;;;;;;;;;;;;;;8.94;69.22;99399.70;110819;1212;97620;-64
2023/10/19 10:33:47;;;;;;;;;;;;;;;8.93;69.10;99394.59;110667;1209;96613;-64
2023/10/19 10:36:16;;;;;;;;;;;;;;;8.96;69.10;99399.40;110729;1215;111622;-65
2023/10/19 10:38:43;;;;;;;;;;;;;;;8.97;69.10;99399.02;110709;1225;99397;-64
2023/10/19 10:41:12;;;;;;;;;;;;;;;8.99;69.06;99399.23;110622;1215;125424;-65
2023/10/19 10:43:54;;;;;;;;;;;;;;;9.02;68.91;99387.29;111215;1210;97636;-64
2023/10/19 10:46:21;;;;;;;;;;;;;;;9.10;69.00;99371.35;111323;1209;125199;-64
2023/10/19 10:48:48;;;;;;;;;;;;;;;9.16;68.94;99375.44;111296;1215;97657;-65
2023/10/19 10:51:17;;;;;;;;;;;;;;;9.19;68.92;99381.34;111307;1209;97579;-65
2023/10/19 10:53:43;;;;;;;;;;;;;;;9.21;68.82;99379.28;111030;1210;126817;-63
2023/10/19 10:56:08;;;;;;;;;;;;;;;9.23;68.72;99371.67;110721;1209;97639;-64
2023/10/19 10:58:33;;;;;;;;;;;;;;;9.26;68.83;99363.86;110735;1213;125002;-64
2023/10/19 11:00:58;;;;;;;;;;;;;;;9.27;68.78;99362.00;110680;1209;97595;-63
2023/10/19 11:03:29;;;;;;;;;;;;;;;9.30;68.72;99359.10;110695;1209;97607;-63
2023/10/19 11:05:55;;;;;;;;;;;;;;;9.35;68.74;99349.55;110633;1209;126553;-63
2023/10/19 11:08:23;;;;;;;;;;;;;;;9.36;68.55;99332.88;110656;1215;98009;-64
2023/10/19 11:10:49;;;;;;;;;;;;;;;9.39;68.64;99330.42;110733;1209;125432;-64
2023/10/19 11:13:15;;;;;;;;;;;;;;;9.42;68.59;99330.39;110656;1215;98276;-64
2023/10/19 11:15:53;;;;;;;;;;;;;;;9.47;68.55;99328.19;110768;1210;97590;-63
2023/10/19 11:18:28;;;;;;;;;;;;;;;9.51;68.60;99327.05;110702;1225;112345;-64
2023/10/19 11:20:59;;;;;;;;;;;;;;;9.52;68.51;99329.67;110782;1214;100368;-64
2023/10/19 11:23:44;;;;;;;;;;;;;;;9.50;68.29;99332.78;110689;1213;124974;-65
2023/10/19 11:26:13;;;;;;;;;;;;;;;9.50;68.36;99328.21;110712;1225;98809;-64
2023/10/19 11:28:43;;;;;;;;;;;;;;;9.47;68.30;99329.23;110776;1221;124071;-64
2023/10/19 11:31:19;;;;;;;;;;;;;;;9.48;68.25;99323.11;110702;1209;112434;-64
2023/10/19 11:33:50;;;;;;;;;;;;;;;9.50;68.14;99320.70;110612;1212;100060;-65
2023/10/19 11:36:16;;;;;;;;;;;;;;;9.53;68.15;99319.26;110681;1213;107979;-64
2023/10/19 11:38:42;;;;;;;;;;;;;;;9.55;68.11;99317.70;110770;1209;97731;-64
2023/10/19 11:41:07;;;;;;;;;;;;;;;9.56;68.08;99319.63;110583;1213;123904;-64
2023/10/19 11:43:34;;;;;;;;;;;;;;;9.55;68.05;99326.81;110686;1210;100100;-64
2023/10/19 11:45:59;;;;;;;;;;;;;;;9.53;67.93;99319.63;110822;1209;124701;-65
2023/10/19 11:48:25;;;;;;;;;;;;;;;9.56;68.03;99316.20;111277;1213;97660;-64
2023/10/19 11:50:51;;;;;;;;;;;;;;;9.61;68.11;99307.73;111290;1209;112250;-65
2023/10/19 11:53:16;;;;;;;;;;;;;;;9.60;67.92;99306.89;111149;1213;124950;-66
2023/10/19 11:55:41;;;;;;;;;;;;;;;9.58;67.85;99306.80;111325;1209;97600;-65
2023/10/19 11:58:11;;;;;;;;;;;;;;;9.62;67.88;99308.37;111184;1213;124522;-65
2023/10/19 12:00:37;;;;;;;;;;;;;;;9.65;67.83;99307.08;111342;1213;111126;-65
2023/10/19 12:03:03;;;;;;;;;;;;;;;9.70;67.87;99296.78;111244;1212;98089;-67
2023/10/19 12:05:28;;;;;;;;;;;;;;;9.71;67.76;99294.58;111130;1209;124582;-65
2023/10/19 12:07:54;;;;;;;;;;;;;;;9.69;67.66;99294.38;111329;1213;97677;-65
2023/10/19 12:10:26;;;;;;;;;;;;;;;9.67;67.63;99294.64;111137;1209;124851;-66
2023/10/19 12:12:52;;;;;;;;;;;;;;;9.66;67.61;99287.75;111338;1210;98484;-65
2023/10/19 12:15:18;;;;;;;;;;;;;;;9.66;67.70;99287.59;111237;1210;97874;-64
2023/10/19 12:17:43;;;;;;;;;;;;;;;9.65;67.61;99285.52;111228;1215;124459;-64
2023/10/19 12:20:08;;;;;;;;;;;;;;;9.68;67.62;99279.81;111278;1213;97691;-64
2023/10/19 12:22:38;;;;;;;;;;;;;;;9.66;67.46;99274.91;111186;1212;124681;-64
2023/10/19 12:25:06;;;;;;;;;;;;;;;9.70;67.56;99268.23;111269;1209;107493;-65
2023/10/19 12:27:31;;;;;;;;;;;;;;;9.75;67.59;99264.89;111263;1213;97676;-64
2023/10/19 12:29:57;;;;;;;;;;;;;;;9.77;67.49;99264.09;111244;1209;123796;-64
2023/10/19 12:32:24;;;;;;;;;;;;;;;9.80;67.47;99265.34;111394;1210;97687;-64
2023/10/19 12:34:53;;;;;;;;;;;;;;;9.83;67.44;99264.45;111139;1209;123908;-64
2023/10/19 12:37:18;;;;;;;;;;;;;;;9.82;67.43;99254.33;111312;1213;97705;-65
2023/10/19 12:39:47;;;;;;;;;;;;;;;9.84;67.43;99246.35;111326;1210;97611;-65
2023/10/19 12:42:14;;;;;;;;;;;;;;;9.88;67.41;99248.93;111143;1212;124091;-64
2023/10/19 12:44:39;;;;;;;;;;;;;;;9.92;67.31;99253.30;111325;1210;97636;-64
2023/10/19 12:47:09;;;;;;;;;;;;;;;9.93;67.27;99250.91;111223;1209;125311;-65
2023/10/19 12:49:35;;;;;;;;;;;;;;;9.91;67.18;99256.40;111303;1213;97664;-64
2023/10/19 12:52:03;;;;;;;;;;;;;;;9.88;67.33;99251.27;111246;1209;124090;-64